createdAt,value
2018-04-12T00:00:00.644Z,5.37
2018-04-12T00:02:28.880Z,5.77
2018-04-12T00:04:56.420Z,5.07
2018-04-12T00:07:23.893Z,5.30
2018-04-12T00:09:52.112Z,5.17
2018-04-12T00:12:20.364Z,4.93
2018-04-12T00:14:48.166Z,4.57
2018-04-12T00:17:16.195Z,5.33
2018-04-12T00:19:43.760Z,4.73
2018-04-12T00:22:11.324Z,4.77
2018-04-12T00:24:39.625Z,4.93
2018-04-12T00:27:07.118Z,5.03
2018-04-12T00:29:34.585Z,5.20
2018-04-12T00:32:02.181Z,5.30
2018-04-12T00:34:30.644Z,5.00
2018-04-12T00:36:58.111Z,5.27
2018-04-12T00:39:25.592Z,5.37
2018-04-12T00:41:53.209Z,5.30
2018-04-12T00:44:20.675Z,4.80
2018-04-12T00:46:48.245Z,6.20
2018-04-12T00:49:16.203Z,5.43
2018-04-12T00:51:43.668Z,5.53
2018-04-12T00:54:11.227Z,6.00
2018-04-12T00:56:38.984Z,6.23
2018-04-12T00:59:06.548Z,5.50
2018-04-12T01:01:34.117Z,5.80
2018-04-12T01:04:02.591Z,6.03
2018-04-12T01:06:30.060Z,6.17
2018-04-12T01:08:58.305Z,5.93
2018-04-12T01:11:26.388Z,6.67
2018-04-12T01:13:53.952Z,6.57
2018-04-12T01:16:21.516Z,6.90
2018-04-12T01:18:49.892Z,6.67
2018-04-12T01:21:17.465Z,6.80
2018-04-12T01:23:45.698Z,6.47
2018-04-12T01:26:13.300Z,6.13
2018-04-12T01:28:41.570Z,6.60
2018-04-12T01:31:09.844Z,6.67
2018-04-12T01:33:38.321Z,6.70
2018-04-12T01:36:05.881Z,6.90
2018-04-12T01:38:33.436Z,7.33
2018-04-12T01:41:01.051Z,7.50
2018-04-12T01:43:28.568Z,7.43
2018-04-12T01:45:56.801Z,7.93
2018-04-12T01:48:24.460Z,8.03
2018-04-12T01:50:52.508Z,8.50
2018-04-12T01:53:20.101Z,7.83
2018-04-12T01:55:47.577Z,8.40
2018-04-12T01:58:15.209Z,8.47
2018-04-12T02:00:43.001Z,8.73
2018-04-12T02:03:10.536Z,9.47
2018-04-12T02:05:38.057Z,9.67
2018-04-12T02:08:06.001Z,11.40
2018-04-12T02:10:34.267Z,11.13
2018-04-12T02:13:02.545Z,10.83
2018-04-12T02:15:31.123Z,11.17
2018-04-12T02:17:59.369Z,13.03
2018-04-12T02:20:26.838Z,11.17
2018-04-12T02:22:54.809Z,11.40
2018-04-12T02:25:22.384Z,11.87
2018-04-12T02:27:50.659Z,12.80
2018-04-12T02:30:18.316Z,11.03
2018-04-12T02:32:45.872Z,12.37
2018-04-12T02:35:13.436Z,12.30
2018-04-12T02:37:41.085Z,12.13
2018-04-12T02:40:08.657Z,12.40
2018-04-12T02:42:36.215Z,12.53
2018-04-12T02:45:03.784Z,12.50
2018-04-12T02:47:32.060Z,12.60
2018-04-12T02:50:00.329Z,12.37
2018-04-12T02:52:28.903Z,12.57
2018-04-12T02:54:56.520Z,13.30
2018-04-12T02:57:23.991Z,13.63
2018-04-12T02:59:51.477Z,14.40
2018-04-12T03:02:19.353Z,15.03
2018-04-12T03:04:47.874Z,15.70
2018-04-12T03:07:15.406Z,15.53
2018-04-12T03:09:43.670Z,16.00
2018-04-12T03:12:12.152Z,15.87
2018-04-12T03:14:40.557Z,17.00
2018-04-12T03:17:08.092Z,16.77
2018-04-12T03:19:36.436Z,17.13
2018-04-12T03:22:03.923Z,18.40
2018-04-12T03:24:32.261Z,18.50
2018-04-12T03:27:00.477Z,19.20
2018-04-12T03:29:28.952Z,22.40
2018-04-12T03:31:56.465Z,22.90
2018-04-12T03:34:24.296Z,22.10
2018-04-12T03:36:52.551Z,22.97
2018-04-12T03:39:20.107Z,22.80
2018-04-12T03:41:47.702Z,24.97
2018-04-12T03:44:15.235Z,23.77
2018-04-12T03:46:43.608Z,24.67
2018-04-12T03:49:11.935Z,23.97
2018-04-12T03:51:40.156Z,25.10
2018-04-12T03:54:07.777Z,25.13
2018-04-12T03:56:35.276Z,28.37
2018-04-12T03:59:03.036Z,26.77
2018-04-12T04:01:30.601Z,27.60
2018-04-12T04:03:59.541Z,27.37
2018-04-12T04:06:27.248Z,28.13
2018-04-12T04:08:54.733Z,28.30
2018-04-12T04:11:22.267Z,28.30
2018-04-12T04:13:50.101Z,29.40
2018-04-12T04:16:29.414Z,30.23
2018-04-12T04:19:09.004Z,28.73
2018-04-12T04:21:36.474Z,30.40
2018-04-12T04:24:04.749Z,29.17
2018-04-12T04:26:33.330Z,27.50
2018-04-12T04:29:01.572Z,30.77
2018-04-12T04:31:29.044Z,29.53
2018-04-12T04:33:56.820Z,31.10
2018-04-12T04:36:24.396Z,30.80
2018-04-12T04:38:52.853Z,31.03
2018-04-12T04:41:20.420Z,32.00
2018-04-12T04:43:48.181Z,31.43
2018-04-12T04:46:16.768Z,31.27
2018-04-12T04:48:44.427Z,31.80
2018-04-12T04:51:13.065Z,31.57
2018-04-12T04:53:40.538Z,33.13
2018-04-12T04:56:08.011Z,33.93
2018-04-12T04:58:37.245Z,34.07
2018-04-12T05:01:04.833Z,33.67
2018-04-12T05:03:32.756Z,33.80
2018-04-12T05:06:01.757Z,36.17
2018-04-12T05:08:30.724Z,35.10
2018-04-12T05:10:58.282Z,35.00
2018-04-12T05:13:25.953Z,35.57
2018-04-12T05:15:53.529Z,37.17
2018-04-12T05:18:21.996Z,33.53
2018-04-12T05:20:50.477Z,36.50
2018-04-12T05:23:17.957Z,34.43
2018-04-12T05:25:45.609Z,34.53
2018-04-12T05:28:13.912Z,34.87
2018-04-12T05:30:41.560Z,36.43
2018-04-12T05:33:09.247Z,36.93
2018-04-12T05:35:36.886Z,37.63
2018-04-12T05:38:04.718Z,37.83
2018-04-12T05:40:32.192Z,38.70
2018-04-12T05:43:00.450Z,37.13
2018-04-12T05:45:28.240Z,36.37
2018-04-12T05:47:56.896Z,37.30
2018-04-12T05:50:24.557Z,37.63
2018-04-12T05:52:53.214Z,35.77
2018-04-12T05:55:20.704Z,37.43
2018-04-12T05:57:48.308Z,37.30
2018-04-12T06:00:15.816Z,36.73
2018-04-12T06:02:43.481Z,36.17
2018-04-12T06:05:11.600Z,36.40
2018-04-12T06:07:39.756Z,35.57
2018-04-12T06:10:07.248Z,34.90
2018-04-12T06:12:34.848Z,34.77
2018-04-12T06:15:03.437Z,33.67
2018-04-12T06:17:31.813Z,34.47
2018-04-12T06:20:00.398Z,34.63
2018-04-12T06:22:28.646Z,32.70
2018-04-12T06:24:56.980Z,32.47
2018-04-12T06:27:24.453Z,33.33
2018-04-12T06:29:51.972Z,32.73
2018-04-12T06:32:20.546Z,31.60
2018-04-12T06:34:48.820Z,33.67
2018-04-12T06:37:16.391Z,29.53
2018-04-12T06:39:44.920Z,32.17
2018-04-12T06:42:12.556Z,28.30
2018-04-12T06:44:40.028Z,26.30
2018-04-12T06:47:07.585Z,27.37
2018-04-12T06:49:35.095Z,29.37
2018-04-12T06:52:02.656Z,27.50
2018-04-12T06:54:30.997Z,31.23
2018-04-12T06:56:58.498Z,30.90
2018-04-12T06:59:26.737Z,28.50
2018-04-12T07:01:55.045Z,29.50
2018-04-12T07:04:23.285Z,29.23
2018-04-12T07:06:50.756Z,25.70
2018-04-12T07:09:18.364Z,29.70
2018-04-12T07:11:46.449Z,29.47
2018-04-12T07:14:13.961Z,29.90
2018-04-12T07:16:41.521Z,28.93
2018-04-12T07:19:10.204Z,30.17
2018-04-12T07:21:38.480Z,28.70
2018-04-12T07:24:06.045Z,29.93
2018-04-12T07:26:34.760Z,30.20
2018-04-12T07:29:02.232Z,29.23
2018-04-12T07:31:29.747Z,29.13
2018-04-12T07:33:58.044Z,29.03
2018-04-12T07:36:25.525Z,28.63
2018-04-12T07:38:53.037Z,28.97
2018-04-12T07:41:21.512Z,28.00
2018-04-12T07:43:49.770Z,28.47
2018-04-12T07:46:17.224Z,27.70
2018-04-12T07:48:44.761Z,29.40
2018-04-12T07:51:12.249Z,26.67
2018-04-12T07:53:39.761Z,26.30
2018-04-12T07:56:07.377Z,25.17
2018-04-12T07:58:34.860Z,25.60
2018-04-12T08:01:03.528Z,25.03
2018-04-12T08:03:31.804Z,25.60
2018-04-12T08:06:00.046Z,28.45
2018-04-12T08:08:27.741Z,24.97
2018-04-12T08:10:55.980Z,25.40
2018-04-12T08:13:23.471Z,23.90
2018-04-12T08:15:52.052Z,23.23
2018-04-12T08:18:19.616Z,23.20
2018-04-12T08:20:47.892Z,22.90
2018-04-12T08:23:16.467Z,23.97
2018-04-12T08:25:44.032Z,22.43
2018-04-12T08:28:12.319Z,21.33
2018-04-12T08:30:40.896Z,22.47
2018-04-12T08:33:09.141Z,19.97
2018-04-12T08:35:36.616Z,21.47
2018-04-12T08:38:04.484Z,19.10
2018-04-12T08:40:31.968Z,19.40
2018-04-12T08:43:00.408Z,19.90
2018-04-12T08:45:27.987Z,20.27
2018-04-12T08:47:56.262Z,19.63
2018-04-12T08:50:24.020Z,18.53
2018-04-12T08:52:51.490Z,19.37
2018-04-12T08:55:19.736Z,18.97
2018-04-12T08:57:47.430Z,18.07
2018-04-12T09:00:15.709Z,14.17
2018-04-12T09:02:44.276Z,11.83
2018-04-12T09:05:12.040Z,16.63
2018-04-12T09:07:40.434Z,17.27
2018-04-12T09:10:09.208Z,18.60
2018-04-12T09:12:36.772Z,18.27
2018-04-12T09:15:04.261Z,18.30
2018-04-12T09:17:32.096Z,16.50
2018-04-12T09:19:59.856Z,16.93
2018-04-12T09:22:27.732Z,17.50
2018-04-12T09:24:55.492Z,16.80
2018-04-12T09:27:23.972Z,14.53
2018-04-12T09:29:51.613Z,16.77
2018-04-12T09:32:19.087Z,16.60
2018-04-12T09:34:46.567Z,15.90
2018-04-12T09:37:15.028Z,14.60
2018-04-12T09:39:42.788Z,17.60
2018-04-12T09:42:10.557Z,16.90
2018-04-12T09:44:38.420Z,15.57
2018-04-12T09:47:06.214Z,13.83
2018-04-12T09:49:34.052Z,13.90
2018-04-12T09:52:01.752Z,13.23
2018-04-12T09:54:29.314Z,14.23
2018-04-12T09:56:56.888Z,13.80
2018-04-12T09:59:24.600Z,14.57
2018-04-12T10:01:54.718Z,13.80
2018-04-12T10:04:27.600Z,14.67
2018-04-12T10:07:02.694Z,14.67
2018-04-12T10:09:31.008Z,15.40
2018-04-12T10:12:00.205Z,13.67
2018-04-12T10:14:27.968Z,15.20
2018-04-12T10:16:55.839Z,14.80
2018-04-12T10:19:23.600Z,15.23
2018-04-12T10:21:51.369Z,15.17
2018-04-12T10:24:19.024Z,14.67
2018-04-12T10:26:46.506Z,15.93
2018-04-12T10:29:15.268Z,14.63
2018-04-12T10:31:42.936Z,15.77
2018-04-12T10:34:11.354Z,15.33
2018-04-12T10:36:39.180Z,14.83
2018-04-12T10:39:06.945Z,14.90
2018-04-12T10:41:35.317Z,15.40
2018-04-12T10:44:03.025Z,15.93
2018-04-12T10:46:30.501Z,14.67
2018-04-12T10:48:58.200Z,15.57
2018-04-12T10:51:25.779Z,13.30
2018-04-12T10:53:54.145Z,12.53
2018-04-12T10:56:22.652Z,11.43
2018-04-12T10:58:50.384Z,11.03
2018-04-12T11:01:18.149Z,10.27
2018-04-12T11:03:46.116Z,9.70
2018-04-12T11:06:14.352Z,9.87
2018-04-12T11:08:41.885Z,9.53
2018-04-12T11:11:09.932Z,9.80
2018-04-12T11:13:38.399Z,8.60
2018-04-12T11:16:06.636Z,8.97
2018-04-12T11:18:34.610Z,10.27
2018-04-12T11:21:02.617Z,10.90
2018-04-12T11:23:31.728Z,9.27
2018-04-12T11:25:59.993Z,8.47
2018-04-12T11:28:27.649Z,8.67
2018-04-12T11:30:55.900Z,9.37
2018-04-12T11:33:23.698Z,8.77
2018-04-12T11:35:52.140Z,8.30
2018-04-12T11:38:19.732Z,8.77
2018-04-12T11:40:48.335Z,9.07
2018-04-12T11:43:16.941Z,9.53
2018-04-12T11:45:44.456Z,8.97
2018-04-12T11:48:12.546Z,8.53
2018-04-12T11:50:40.779Z,8.90
2018-04-12T11:53:08.245Z,7.33
2018-04-12T11:55:35.928Z,9.13
2018-04-12T11:58:04.200Z,8.30
2018-04-12T12:00:31.681Z,8.00
2018-04-12T12:03:00.036Z,8.27
2018-04-12T12:05:28.272Z,7.17
2018-04-12T12:07:55.768Z,7.90
2018-04-12T12:10:23.325Z,7.83
2018-04-12T12:12:50.788Z,7.90
2018-04-12T12:15:19.026Z,7.23
2018-04-12T12:17:46.922Z,7.57
2018-04-12T12:20:15.408Z,7.67
2018-04-12T12:22:43.478Z,6.83
2018-04-12T12:25:11.336Z,7.20
2018-04-12T12:27:39.000Z,6.60
2018-04-12T12:30:06.769Z,7.47
2018-04-12T12:32:35.257Z,7.57
2018-04-12T12:35:03.499Z,6.77
2018-04-12T12:37:31.084Z,6.43
2018-04-12T12:39:59.772Z,6.10
2018-04-12T12:42:28.959Z,6.80
2018-04-12T12:44:56.624Z,7.00
2018-04-12T12:47:24.213Z,7.60
2018-04-12T12:49:52.777Z,5.83
2018-04-12T12:52:21.357Z,6.40
2018-04-12T12:54:48.833Z,6.47
2018-04-12T12:57:17.185Z,5.73
2018-04-12T12:59:44.656Z,5.47
2018-04-12T13:02:13.033Z,6.23
2018-04-12T13:04:41.389Z,6.53
2018-04-12T13:07:08.945Z,5.80
2018-04-12T13:09:36.517Z,5.53
2018-04-12T13:12:05.325Z,6.83
2018-04-12T13:14:33.888Z,5.77
2018-04-12T13:17:01.454Z,5.90
2018-04-12T13:19:28.985Z,6.63
2018-04-12T13:21:56.463Z,6.03
2018-04-12T13:24:24.551Z,6.00
2018-04-12T13:26:52.401Z,6.03
2018-04-12T13:29:19.969Z,6.50
2018-04-12T13:31:48.203Z,6.03
2018-04-12T13:34:15.905Z,6.10
2018-04-12T13:36:43.456Z,6.50
2018-04-12T13:39:10.920Z,5.40
2018-04-12T13:41:38.453Z,6.03
2018-04-12T13:44:06.079Z,5.63
2018-04-12T13:46:33.612Z,5.33
2018-04-12T13:49:01.861Z,4.93
2018-04-12T13:51:29.532Z,5.03
2018-04-12T13:53:57.112Z,5.23
2018-04-12T13:56:25.371Z,5.60
2018-04-12T13:58:53.810Z,4.63
2018-04-12T14:01:21.277Z,4.60
2018-04-12T14:03:48.769Z,4.93
2018-04-12T14:06:17.465Z,4.17
2018-04-12T14:08:45.709Z,3.90
2018-04-12T14:11:13.324Z,3.93
2018-04-12T14:13:40.897Z,3.93
2018-04-12T14:16:08.365Z,4.73
2018-04-12T14:18:35.940Z,4.30
2018-04-12T14:21:03.524Z,4.53
2018-04-12T14:23:31.741Z,4.00
2018-04-12T14:25:59.214Z,4.07
2018-04-12T14:28:26.792Z,4.30
2018-04-12T14:30:54.288Z,4.33
2018-04-12T14:33:22.944Z,3.83
2018-04-12T14:35:50.418Z,4.57
2018-04-12T14:38:18.662Z,3.93
2018-04-12T14:40:46.345Z,4.00
2018-04-12T14:43:13.908Z,4.07
2018-04-12T14:45:41.881Z,3.90
2018-04-12T14:48:10.109Z,3.43
2018-04-12T14:50:37.804Z,3.97
2018-04-12T14:53:05.289Z,3.80
2018-04-12T14:55:33.521Z,2.97
2018-04-12T14:58:01.041Z,4.57
2018-04-12T15:00:28.505Z,3.80
2018-04-12T15:02:56.115Z,3.00
2018-04-12T15:05:23.656Z,4.53
2018-04-12T15:07:51.994Z,3.10
2018-04-12T15:10:19.483Z,2.50
2018-04-12T15:12:46.952Z,2.87
2018-04-12T15:15:14.416Z,3.37
2018-04-12T15:17:42.184Z,2.40
2018-04-12T15:20:09.659Z,2.77
2018-04-12T15:22:37.884Z,2.20
2018-04-12T15:25:05.417Z,1.50
2018-04-12T15:27:32.888Z,2.40
2018-04-12T15:30:00.565Z,1.87
2018-04-12T15:32:28.586Z,1.40
2018-04-12T15:34:57.864Z,2.50
2018-04-12T15:37:25.729Z,1.80
2018-04-12T15:39:53.196Z,1.83
2018-04-12T15:42:21.457Z,2.27
2018-04-12T15:44:48.985Z,2.00
2018-04-12T15:47:16.459Z,1.60
2018-04-12T15:49:44.013Z,1.70
2018-04-12T15:52:11.497Z,1.57
2018-04-12T15:54:39.502Z,1.70
2018-04-12T15:57:06.963Z,1.80
2018-04-12T15:59:34.423Z,1.80
2018-04-12T16:02:01.936Z,1.73
2018-04-12T16:04:29.495Z,1.70
2018-04-12T16:06:57.099Z,2.10
2018-04-12T16:09:25.816Z,1.87
2018-04-12T16:11:53.289Z,1.73
2018-04-12T16:14:20.829Z,1.60
2018-04-12T16:16:48.348Z,1.90
2018-04-12T16:19:15.821Z,1.53
2018-04-12T16:21:43.294Z,1.83
2018-04-12T16:24:11.308Z,1.77
2018-04-12T16:26:38.864Z,1.70
2018-04-12T16:29:06.440Z,1.50
2018-04-12T16:31:34.908Z,1.80
2018-04-12T16:34:02.368Z,1.60
2018-04-12T16:36:31.033Z,1.70
2018-04-12T16:38:58.802Z,1.67
2018-04-12T16:41:26.248Z,1.70
2018-04-12T16:43:53.720Z,1.60
2018-04-12T16:46:21.300Z,1.50
2018-04-12T16:48:49.763Z,1.57
2018-04-12T16:51:17.228Z,1.30
2018-04-12T16:53:45.544Z,1.43
2018-04-12T16:56:13.067Z,1.37
2018-04-12T16:58:41.329Z,1.43
2018-04-12T17:01:08.797Z,1.63
2018-04-12T17:03:37.036Z,1.47
2018-04-12T17:06:04.776Z,1.50
2018-04-12T17:08:32.249Z,1.50
2018-04-12T17:10:59.769Z,1.60
2018-04-12T17:13:27.244Z,1.97
2018-04-12T17:15:54.765Z,1.97
2018-04-12T17:18:23.140Z,1.90
2018-04-12T17:20:50.604Z,1.80
2018-04-12T17:23:18.841Z,1.60
2018-04-12T17:25:46.399Z,1.53
2018-04-12T17:28:14.045Z,1.47
2018-04-12T17:30:41.956Z,1.80
2018-04-12T17:33:09.522Z,1.47
2018-04-12T17:35:37.795Z,1.70
2018-04-12T17:38:06.604Z,1.77
2018-04-12T17:40:34.068Z,1.80
2018-04-12T17:43:01.532Z,1.40
2018-04-12T17:45:29.878Z,1.33
2018-04-12T17:47:58.151Z,1.40
2018-04-12T17:50:25.708Z,1.70
2018-04-12T17:52:53.315Z,1.30
2018-04-12T17:55:20.833Z,1.30
2018-04-12T17:57:48.389Z,1.30
2018-04-12T18:00:16.552Z,1.20
2018-04-12T18:02:44.016Z,1.20
2018-04-12T18:05:11.490Z,1.20
2018-04-12T18:07:40.057Z,1.30
2018-04-12T18:10:07.624Z,1.30
2018-04-12T18:12:35.907Z,1.23
2018-04-12T18:15:03.432Z,1.60
2018-04-12T18:17:30.907Z,1.50
2018-04-12T18:19:58.413Z,1.67
2018-04-12T18:22:26.696Z,2.30
2018-04-12T18:24:54.168Z,1.87
2018-04-12T18:27:21.665Z,1.70
2018-04-12T18:29:49.932Z,1.80
2018-04-12T18:32:17.396Z,1.40
2018-04-12T18:34:45.664Z,1.27
2018-04-12T18:37:13.429Z,1.40
2018-04-12T18:39:40.920Z,1.20
2018-04-12T18:42:09.061Z,1.20
2018-04-12T18:44:36.669Z,1.40
2018-04-12T18:47:04.460Z,1.50
2018-04-12T18:49:32.049Z,1.40
2018-04-12T18:52:00.324Z,1.10
2018-04-12T18:54:28.094Z,1.30
2018-04-12T18:56:56.424Z,1.17
2018-04-12T18:59:23.892Z,1.50
2018-04-12T19:01:51.405Z,1.33
2018-04-12T19:04:18.937Z,1.40
2018-04-12T19:06:46.600Z,1.20
2018-04-12T19:09:14.160Z,1.77
2018-04-12T19:11:42.423Z,1.67
2018-04-12T19:14:10.912Z,1.50
2018-04-12T19:16:38.477Z,1.60
2018-04-12T19:19:06.755Z,1.77
2018-04-12T19:21:35.338Z,2.37
2018-04-12T19:24:02.812Z,2.63
2018-04-12T19:26:30.301Z,2.00
2018-04-12T19:28:58.011Z,2.00
2018-04-12T19:31:25.593Z,2.40
2018-04-12T19:33:53.134Z,2.40
2018-04-12T19:36:21.464Z,2.47
2018-04-12T19:38:48.932Z,2.97
2018-04-12T19:41:16.471Z,2.80
2018-04-12T19:43:43.973Z,2.93
2018-04-12T19:46:11.543Z,2.80
2018-04-12T19:48:39.813Z,2.67
2018-04-12T19:51:07.289Z,2.70
2018-04-12T19:53:35.532Z,2.20
2018-04-12T19:56:03.037Z,2.30
2018-04-12T19:58:30.514Z,2.17
2018-04-12T20:00:58.068Z,1.70
2018-04-12T20:03:25.536Z,2.00
2018-04-12T20:05:53.109Z,1.80
2018-04-12T20:08:20.820Z,2.03
2018-04-12T20:10:48.360Z,2.40
2018-04-12T20:13:15.976Z,2.20
2018-04-12T20:15:43.478Z,2.50
2018-04-12T20:18:11.712Z,2.17
2018-04-12T20:20:39.257Z,2.30
2018-04-12T20:23:06.768Z,2.17
2018-04-12T20:25:35.340Z,2.40
2018-04-12T20:28:03.029Z,2.40
2018-04-12T20:30:30.677Z,2.10
2018-04-12T20:32:58.946Z,2.40
2018-04-12T20:35:26.527Z,2.80
2018-04-12T20:37:54.472Z,2.23
2018-04-12T20:40:22.032Z,2.27
2018-04-12T20:42:49.605Z,2.77
2018-04-12T20:45:18.790Z,2.73
2018-04-12T20:47:47.071Z,2.40
2018-04-12T20:50:16.003Z,2.30
2018-04-12T20:52:43.553Z,2.37
2018-04-12T20:55:11.026Z,2.83
2018-04-12T20:57:38.534Z,2.50
2018-04-12T21:00:06.291Z,2.63
2018-04-12T21:02:35.848Z,2.80
2018-04-12T21:05:03.360Z,2.83
2018-04-12T21:07:32.041Z,2.73
2018-04-12T21:09:59.518Z,2.90
2018-04-12T21:12:27.776Z,2.77
2018-04-12T21:14:56.152Z,2.50
2018-04-12T21:17:23.712Z,2.47
2018-04-12T21:19:51.268Z,2.90
2018-04-12T21:22:19.200Z,2.80
2018-04-12T21:24:46.692Z,3.10
2018-04-12T21:27:14.275Z,2.80
2018-04-12T21:29:42.542Z,3.67
2018-04-12T21:32:10.888Z,3.50
2018-04-12T21:34:38.413Z,3.33
2018-04-12T21:37:05.877Z,2.93
2018-04-12T21:39:33.509Z,3.40
2018-04-12T21:42:01.453Z,3.20
2018-04-12T21:44:28.908Z,2.83
2018-04-12T21:46:56.376Z,3.20
2018-04-12T21:49:24.851Z,3.30
2018-04-12T21:51:52.757Z,2.80
2018-04-12T21:54:20.576Z,2.60
2018-04-12T21:56:48.238Z,2.30
2018-04-12T21:59:15.796Z,2.27
2018-04-12T22:01:43.461Z,2.70
2018-04-12T22:04:10.932Z,3.20
2018-04-12T22:06:39.192Z,3.00
2018-04-12T22:09:07.161Z,2.93
2018-04-12T22:11:35.023Z,3.00
2018-04-12T22:14:02.684Z,3.00
2018-04-12T22:16:30.203Z,2.90
2018-04-12T22:18:57.669Z,3.13
2018-04-12T22:21:25.267Z,3.77
2018-04-12T22:23:52.920Z,3.23
2018-04-12T22:26:20.484Z,3.70
2018-04-12T22:28:48.036Z,3.30
2018-04-12T22:31:15.903Z,3.43
2018-04-12T22:33:43.568Z,3.30
2018-04-12T22:36:11.228Z,3.50
2018-04-12T22:38:38.996Z,3.10
2018-04-12T22:41:07.032Z,3.17
2018-04-12T22:43:34.492Z,3.33
2018-04-12T22:46:02.083Z,3.30
2018-04-12T22:48:30.356Z,3.80
2018-04-12T22:50:58.020Z,3.97
2018-04-12T22:53:25.782Z,3.60
2018-04-12T22:55:54.465Z,3.67
2018-04-12T22:58:21.925Z,3.80
2018-04-12T23:00:49.416Z,3.53
2018-04-12T23:03:17.452Z,3.67
2018-04-12T23:05:45.012Z,3.40
2018-04-12T23:08:12.807Z,3.57
2018-04-12T23:10:40.641Z,4.27
2018-04-12T23:13:08.217Z,3.47
2018-04-12T23:15:37.236Z,3.90
2018-04-12T23:18:04.927Z,3.90
2018-04-12T23:20:32.498Z,3.30
2018-04-12T23:22:59.977Z,4.00
2018-04-12T23:25:28.660Z,3.47
2018-04-12T23:27:56.509Z,3.23
2018-04-12T23:30:24.089Z,3.40
2018-04-12T23:32:52.564Z,3.57
2018-04-12T23:35:20.648Z,3.43
2018-04-12T23:37:49.525Z,4.00
2018-04-12T23:40:17.289Z,4.20
2018-04-12T23:42:44.852Z,3.70
2018-04-12T23:45:12.432Z,3.83
2018-04-12T23:47:40.889Z,4.33
2018-04-12T23:50:08.752Z,5.00
2018-04-12T23:52:37.948Z,4.50
2018-04-12T23:55:05.616Z,4.70
2018-04-12T23:57:33.481Z,4.30
